Time;durP1;ratioP1;P1;durP2;ratioP2;P2;SDS_P1;SDS_P2;PMS_P1;PMS_P2;Temp;Humidity;BMP_temperature;BMP_pressure;BME280_temperature;BME280_humidity;BME280_pressure;Samples;Min_cycle;Max_cycle;Signal;HPM_P1;HPM_P2
2022/12/05 00:01:18;;;;;;;1.83;1.27;;;4.50;99.90;;;;;;5071785;28;20875;-48
2022/12/05 00:03:47;;;;;;;1.37;0.83;;;4.60;99.90;;;;;;5071761;28;20552;-47
2022/12/05 00:06:14;;;;;;;2.57;0.93;;;4.90;99.90;;;;;;5071690;28;20447;-48
2022/12/05 00:08:40;;;;;;;1.90;1.67;;;5.10;99.90;;;;;;5071318;28;20443;-48
2022/12/05 00:11:12;;;;;;;1.27;0.90;;;5.00;99.90;;;;;;5071154;28;20451;-48
2022/12/05 00:13:40;;;;;;;1.30;1.03;;;5.10;99.90;;;;;;5070685;28;21006;-48
2022/12/05 00:16:08;;;;;;;1.43;1.00;;;5.20;99.90;;;;;;5070954;28;20538;-49
2022/12/05 00:18:35;;;;;;;1.87;1.30;;;5.30;99.90;;;;;;5071183;28;20439;-48
2022/12/05 00:21:04;;;;;;;1.10;0.90;;;5.00;99.90;;;;;;5071444;28;20872;-48
2022/12/05 00:23:31;;;;;;;2.00;0.90;;;4.90;99.90;;;;;;5070056;28;20456;-51
2022/12/05 00:26:01;;;;;;;0.93;0.50;;;5.20;99.90;;;;;;5070832;28;20480;-48
2022/12/05 00:28:28;;;;;;;2.80;1.30;;;5.20;99.90;;;;;;5070641;28;20991;-49
2022/12/05 00:30:54;;;;;;;3.07;1.67;;;5.10;99.90;;;;;;5070718;28;20435;-48
2022/12/05 00:33:21;;;;;;;2.53;2.20;;;4.80;99.90;;;;;;5060729;28;20570;-48
2022/12/05 00:35:48;;;;;;;1.60;1.40;;;4.60;99.90;;;;;;5070464;28;20442;-49
2022/12/05 00:38:16;;;;;;;1.50;1.30;;;4.60;99.90;;;;;;5070416;28;20447;-48
2022/12/05 00:40:43;;;;;;;1.90;1.50;;;4.60;99.90;;;;;;5070788;28;20957;-49
2022/12/05 00:43:10;;;;;;;1.77;1.00;;;4.50;99.90;;;;;;5066502;28;20460;-48
2022/12/05 00:45:36;;;;;;;2.03;0.90;;;4.40;99.90;;;;;;5070444;28;21032;-46
2022/12/05 00:48:04;;;;;;;3.13;1.50;;;4.60;99.90;;;;;;5067778;28;21125;-48
2022/12/05 00:50:31;;;;;;;2.43;1.80;;;4.60;99.90;;;;;;5065580;28;20521;-50
2022/12/05 00:52:57;;;;;;;2.87;2.50;;;4.20;99.90;;;;;;5070482;28;20548;-48
2022/12/05 00:55:26;;;;;;;1.40;1.30;;;4.00;99.90;;;;;;5070937;28;20812;-48
2022/12/05 00:57:52;;;;;;;4.20;2.70;;;4.30;99.90;;;;;;5070486;28;20933;-48
2022/12/05 01:00:20;;;;;;;3.53;2.73;;;4.50;99.90;;;;;;5070603;28;20458;-51
2022/12/05 01:02:47;;;;;;;3.63;3.23;;;4.50;99.90;;;;;;5070484;28;20545;-48
2022/12/05 01:05:13;;;;;;;3.20;2.70;;;4.20;99.90;;;;;;5070282;28;21019;-51
2022/12/05 01:07:40;;;;;;;2.30;2.10;;;4.00;99.90;;;;;;5074794;28;20448;-48
2022/12/05 01:10:08;;;;;;;2.50;2.10;;;4.10;99.90;;;;;;5074607;28;20492;-50
2022/12/05 01:12:36;;;;;;;3.20;2.17;;;4.10;99.90;;;;;;5070071;28;21007;-48
2022/12/05 01:15:04;;;;;;;1.80;1.30;;;4.00;99.90;;;;;;5074278;28;20937;-49
2022/12/05 01:17:31;;;;;;;1.57;1.10;;;4.30;99.90;;;;;;5074832;28;20447;-48
2022/12/05 01:19:58;;;;;;;2.20;1.57;;;4.60;99.90;;;;;;5071883;28;20443;-48
2022/12/05 01:22:24;;;;;;;1.57;1.03;;;4.70;99.90;;;;;;5067128;28;20473;-51
2022/12/05 01:24:51;;;;;;;1.43;0.97;;;4.80;99.90;;;;;;5074541;28;20569;-48
2022/12/05 01:27:18;;;;;;;1.40;1.07;;;4.80;99.90;;;;;;5059311;28;20534;-49
2022/12/05 01:29:46;;;;;;;1.73;1.23;;;4.80;99.90;;;;;;5073708;28;20796;-51
2022/12/05 01:32:13;;;;;;;3.40;3.10;;;4.80;99.90;;;;;;5073126;28;20983;-50
2022/12/05 01:34:40;;;;;;;5.53;2.97;;;4.50;99.90;;;;;;5074030;28;20470;-48
2022/12/05 01:37:07;;;;;;;3.03;2.77;;;3.90;99.90;;;;;;5073465;28;20478;-48
2022/12/05 01:39:34;;;;;;;4.67;3.40;;;3.60;99.90;;;;;;5073377;28;20482;-49
2022/12/05 01:42:01;;;;;;;3.73;3.33;;;3.60;99.90;;;;;;5067972;28;20470;-48
2022/12/05 01:45:01;;;;;;;4.63;3.23;;;3.50;99.90;;;;;;5065791;28;20484;-50
2022/12/05 01:47:30;;;;;;;3.60;3.27;;;3.60;99.90;;;;;;5073474;28;20446;-51
2022/12/05 01:49:58;;;;;;;3.53;2.60;;;3.60;99.90;;;;;;5073579;28;20479;-48
2022/12/05 01:52:27;;;;;;;4.13;3.63;;;3.60;99.90;;;;;;5073292;28;20499;-49
2022/12/05 01:54:59;;;;;;;5.60;3.63;;;3.70;99.90;;;;;;5073564;28;20968;-48
2022/12/05 01:57:26;;;;;;;4.00;3.33;;;3.70;99.90;;;;;;5074139;28;20530;-49
2022/12/05 01:59:58;;;;;;;3.13;2.60;;;3.70;99.90;;;;;;5073546;28;20446;-49
2022/12/05 02:02:27;;;;;;;3.17;2.30;;;3.50;99.90;;;;;;5073392;28;20936;-48
2022/12/05 02:05:01;;;;;;;3.83;2.67;;;3.80;99.90;;;;;;5072868;28;20474;-49
2022/12/05 02:07:28;;;;;;;5.77;4.20;;;3.90;99.90;;;;;;5073280;28;20441;-48
2022/12/05 02:09:55;;;;;;;4.00;3.60;;;3.60;99.90;;;;;;5073123;28;20534;-50
2022/12/05 02:12:23;;;;;;;2.00;1.77;;;3.50;99.90;;;;;;5073858;28;20447;-48
2022/12/05 02:15:00;;;;;;;4.83;3.50;;;3.70;99.90;;;;;;5073320;28;20492;-49
2022/12/05 02:17:35;;;;;;;4.63;3.23;;;3.80;99.90;;;;;;5073257;28;20524;-49
2022/12/05 02:20:25;;;;;;;4.03;3.60;;;3.80;99.90;;;;;;5072751;28;20535;-48
2022/12/05 02:23:23;;;;;;;4.17;2.93;;;3.70;99.90;;;;;;5069504;28;21046;-48
2022/12/05 02:26:32;;;;;;;4.00;2.70;;;3.50;99.90;;;;;;5071589;28;20477;-49
2022/12/05 02:29:33;;;;;;;3.43;3.13;;;3.60;99.90;;;;;;5057902;28;20452;-48
2022/12/05 02:32:06;;;;;;;4.70;3.37;;;3.80;99.90;;;;;;5070945;28;20455;-48
2022/12/05 02:34:41;;;;;;;5.40;3.50;;;3.00;99.90;;;;;;5069028;28;20535;-49
2022/12/05 02:37:14;;;;;;;7.27;4.63;;;2.50;99.90;;;;;;5069872;28;20444;-48
2022/12/05 02:39:46;;;;;;;6.57;5.33;;;2.30;99.90;;;;;;5072595;28;20453;-48
2022/12/05 02:42:18;;;;;;;5.53;4.70;;;2.40;99.90;;;;;;5069470;28;20459;-48
2022/12/05 02:44:50;;;;;;;5.03;4.17;;;2.50;99.90;;;;;;5072767;28;20535;-50
2022/12/05 02:47:23;;;;;;;4.70;4.20;;;2.80;99.90;;;;;;5071662;28;20441;-48
2022/12/05 02:49:51;;;;;;;4.30;3.90;;;3.00;99.90;;;;;;5073615;28;20886;-48
2022/12/05 02:52:19;;;;;;;3.10;2.80;;;3.20;99.90;;;;;;5072598;28;20480;-50
2022/12/05 02:54:49;;;;;;;6.43;5.10;;;3.30;99.90;;;;;;5072032;28;20532;-48
2022/12/05 02:57:17;;;;;;;4.10;3.70;;;3.40;99.90;;;;;;5072457;28;20529;-48
2022/12/05 02:59:44;;;;;;;4.33;3.93;;;3.40;99.90;;;;;;5072562;28;21026;-48
2022/12/05 03:02:24;;;;;;;5.47;4.93;;;3.40;99.90;;;;;;5071574;28;20884;-49
2022/12/05 03:04:51;;;;;;;5.03;3.87;;;3.40;99.90;;;;;;5067220;28;20473;-48
2022/12/05 03:07:21;;;;;;;4.80;4.30;;;3.10;99.90;;;;;;5072249;28;20469;-49
2022/12/05 03:09:50;;;;;;;5.00;4.47;;;3.00;99.90;;;;;;5060774;28;20534;-48
2022/12/05 03:12:20;;;;;;;7.40;5.37;;;2.80;99.90;;;;;;5061599;28;20532;-51
2022/12/05 03:14:50;;;;;;;5.60;4.37;;;2.90;99.90;;;;;;5072287;28;20543;-49
2022/12/05 03:17:22;;;;;;;7.27;4.80;;;3.10;99.90;;;;;;5069099;28;20445;-48
2022/12/05 03:19:56;;;;;;;6.57;5.87;;;3.20;99.90;;;;;;5068783;28;20473;-48
2022/12/05 03:22:30;;;;;;;6.77;5.87;;;3.00;99.90;;;;;;5066927;28;20439;-48
2022/12/05 03:24:57;;;;;;;8.63;5.90;;;2.70;99.90;;;;;;5071640;28;20893;-49
2022/12/05 03:27:29;;;;;;;5.70;5.10;;;2.70;99.90;;;;;;5072185;28;20441;-48
2022/12/05 03:30:00;;;;;;;5.83;5.33;;;2.50;99.90;;;;;;5071318;28;20540;-48
2022/12/05 03:32:36;;;;;;;5.73;5.20;;;2.60;99.90;;;;;;5067158;28;20461;-49
2022/12/05 03:35:09;;;;;;;4.73;4.23;;;2.90;99.90;;;;;;5071556;28;20468;-48
2022/12/05 03:37:46;;;;;;;6.50;5.57;;;3.00;99.90;;;;;;5072003;28;20451;-49
2022/12/05 03:40:27;;;;;;;6.20;5.33;;;3.10;99.90;;;;;;5061540;28;20794;-50
2022/12/05 03:43:01;;;;;;;5.73;5.20;;;3.30;99.90;;;;;;5068735;28;20473;-50
2022/12/05 03:45:34;;;;;;;6.03;5.43;;;3.30;99.90;;;;;;5071701;28;20469;-48
2022/12/05 03:48:09;;;;;;;6.73;6.03;;;2.80;99.90;;;;;;5060523;28;20437;-48
2022/12/05 03:50:41;;;;;;;7.13;5.33;;;2.50;99.90;;;;;;5061402;28;20533;-49
2022/12/05 03:53:13;;;;;;;9.73;6.10;;;2.60;99.90;;;;;;5069778;28;20552;-52
2022/12/05 03:55:43;;;;;;;5.17;4.20;;;2.70;99.90;;;;;;5069651;28;20455;-51
2022/12/05 03:58:15;;;;;;;6.10;5.00;;;2.90;99.90;;;;;;5069911;28;20445;-48
2022/12/05 04:00:46;;;;;;;5.87;5.27;;;3.10;99.90;;;;;;5070099;28;20441;-50
2022/12/05 04:03:18;;;;;;;7.73;6.60;;;3.10;99.90;;;;;;5069520;28;20552;-50
2022/12/05 04:05:49;;;;;;;6.83;5.67;;;3.10;99.90;;;;;;5069856;28;20508;-51
2022/12/05 04:08:22;;;;;;;6.40;5.10;;;3.10;99.90;;;;;;5071537;28;20534;-49
2022/12/05 04:10:52;;;;;;;6.07;4.93;;;3.20;99.90;;;;;;5071244;28;20528;-52
2022/12/05 04:13:24;;;;;;;5.67;5.17;;;3.30;99.90;;;;;;5070132;28;20564;-49
2022/12/05 04:18:55;;;;;;;6.23;4.30;;;3.30;99.90;;;;;;5070740;28;21027;-50
2022/12/05 04:21:38;;;;;;;5.90;4.83;;;3.30;99.90;;;;;;5071055;28;20437;-48
2022/12/05 04:27:04;;;;;;;5.47;4.93;;;3.30;99.90;;;;;;5070866;28;20478;-48
2022/12/05 04:29:36;;;;;;;6.10;5.07;;;3.40;99.90;;;;;;5070976;28;20449;-49
2022/12/05 04:32:08;;;;;;;8.20;4.63;;;3.20;99.90;;;;;;5070497;28;20533;-47
2022/12/05 04:34:37;;;;;;;6.60;5.23;;;3.30;99.90;;;;;;5070510;28;20950;-48
2022/12/05 04:37:10;;;;;;;5.00;4.50;;;3.30;99.90;;;;;;5055927;28;20533;-49
2022/12/05 04:39:44;;;;;;;6.27;4.10;;;3.10;99.90;;;;;;5067493;28;20449;-49
2022/12/05 04:42:14;;;;;;;6.57;5.03;;;2.60;99.90;;;;;;5068887;28;20448;-48
2022/12/05 04:44:46;;;;;;;5.60;5.10;;;2.50;99.90;;;;;;5070159;28;20448;-49
2022/12/05 04:47:17;;;;;;;7.23;5.70;;;2.60;99.90;;;;;;5071155;28;20568;-49
2022/12/05 04:49:46;;;;;;;7.33;5.70;;;2.60;99.90;;;;;;5071172;28;20536;-49
2022/12/05 04:52:15;;;;;;;6.00;5.40;;;2.40;99.90;;;;;;5070295;28;20892;-49
2022/12/05 04:54:46;;;;;;;7.00;5.63;;;2.50;99.90;;;;;;5070169;28;20528;-49
2022/12/05 04:57:18;;;;;;;9.47;6.03;;;2.70;99.90;;;;;;5069327;28;20526;-48
2022/12/05 04:59:45;;;;;;;6.40;5.80;;;2.70;99.90;;;;;;5070240;28;20449;-50
2022/12/05 05:02:17;;;;;;;9.03;5.53;;;2.60;99.90;;;;;;5060822;28;20983;-51
2022/12/05 05:04:49;;;;;;;8.10;6.37;;;2.50;99.90;;;;;;5065157;28;20508;-49
2022/12/05 05:07:19;;;;;;;7.20;6.20;;;2.60;99.90;;;;;;5065629;28;20472;-49
2022/12/05 05:09:46;;;;;;;10.97;7.00;;;2.60;99.90;;;;;;5068745;28;20571;-49
2022/12/05 05:12:13;;;;;;;8.20;7.40;;;2.40;99.90;;;;;;5069725;28;20532;-51
2022/12/05 05:14:40;;;;;;;7.17;6.13;;;2.40;99.90;;;;;;5069098;28;20445;-49
2022/12/05 05:17:07;;;;;;;6.60;5.87;;;2.50;99.90;;;;;;5065291;28;20433;-49
2022/12/05 05:19:33;;;;;;;11.37;9.53;;;2.70;99.90;;;;;;5051959;28;20528;-50
2022/12/05 05:22:00;;;;;;;12.10;9.70;;;2.90;99.90;;;;;;5063736;28;20798;-49
2022/12/05 05:24:28;;;;;;;9.60;8.17;;;3.10;99.90;;;;;;5068683;28;20472;-49
2022/12/05 05:26:55;;;;;;;8.83;7.20;;;3.10;99.90;;;;;;5054264;28;20478;-49
2022/12/05 05:29:22;;;;;;;9.53;7.73;;;3.10;99.90;;;;;;5069469;28;20525;-49
2022/12/05 05:31:49;;;;;;;9.70;8.13;;;2.90;99.90;;;;;;5070022;28;20949;-49
2022/12/05 05:34:16;;;;;;;11.87;8.37;;;2.50;99.90;;;;;;5069219;28;20473;-49
2022/12/05 05:36:43;;;;;;;13.23;8.97;;;2.50;99.90;;;;;;5060011;28;20438;-49
2022/12/05 05:39:13;;;;;;;11.50;9.70;;;2.70;99.90;;;;;;5070190;28;20444;-48
2022/12/05 05:41:42;;;;;;;13.03;10.10;;;2.90;99.90;;;;;;5070497;28;20451;-50
2022/12/05 05:44:09;;;;;;;10.27;8.40;;;3.00;99.90;;;;;;5070239;28;20575;-49
2022/12/05 05:46:37;;;;;;;9.93;8.93;;;3.00;99.90;;;;;;5056022;28;20478;-49
2022/12/05 05:49:04;;;;;;;11.13;9.23;;;2.90;99.90;;;;;;5066117;28;20875;-49
2022/12/05 05:51:31;;;;;;;10.47;8.37;;;3.00;99.90;;;;;;5070612;28;20973;-50
2022/12/05 05:53:59;;;;;;;11.83;8.33;;;3.10;99.90;;;;;;5063649;28;20552;-49
2022/12/05 05:56:27;;;;;;;10.37;9.17;;;3.20;99.90;;;;;;5068928;28;20452;-49
2022/12/05 05:59:00;;;;;;;9.50;8.53;;;3.20;99.90;;;;;;5069904;28;20473;-51
2022/12/05 06:01:29;;;;;;;9.77;8.73;;;3.20;99.90;;;;;;5070652;28;20823;-49
2022/12/05 06:03:56;;;;;;;12.40;9.17;;;3.20;99.90;;;;;;5065190;28;20546;-49
2022/12/05 06:06:23;;;;;;;10.67;9.20;;;3.20;99.90;;;;;;5061296;28;20552;-49
2022/12/05 06:08:50;;;;;;;11.87;10.87;;;3.20;99.90;;;;;;5072011;28;20959;-47
2022/12/05 06:11:19;;;;;;;12.23;9.43;;;3.10;99.90;;;;;;5072287;28;20444;-51
2022/12/05 06:13:46;;;;;;;12.80;9.50;;;2.60;99.90;;;;;;5072609;28;20477;-49
2022/12/05 06:16:15;;;;;;;43.33;24.93;;;2.80;99.90;;;;;;5068636;28;21020;-52
2022/12/05 06:18:42;;;;;;;49.53;28.63;;;2.90;99.90;;;;;;5069315;28;20887;-49
2022/12/05 06:21:11;;;;;;;10.83;9.70;;;3.00;99.90;;;;;;5064181;28;20548;-49
2022/12/05 06:23:39;;;;;;;13.10;9.40;;;2.80;99.90;;;;;;5067392;28;20932;-49
2022/12/05 06:26:09;;;;;;;10.57;8.50;;;2.70;99.90;;;;;;5071022;28;20506;-51
2022/12/05 06:28:38;;;;;;;10.47;7.90;;;2.80;99.90;;;;;;5072167;28;20881;-49
2022/12/05 06:31:08;;;;;;;11.00;8.53;;;2.80;99.90;;;;;;5072430;28;20639;-49
2022/12/05 06:33:37;;;;;;;11.60;9.20;;;2.90;99.90;;;;;;5071856;28;20985;-49
2022/12/05 06:36:06;;;;;;;10.03;8.30;;;3.00;99.90;;;;;;5071044;28;21060;-48
2022/12/05 06:38:33;;;;;;;11.40;10.20;;;2.80;99.90;;;;;;5072676;28;20519;-48
2022/12/05 06:41:00;;;;;;;10.90;9.77;;;2.60;99.90;;;;;;5073675;28;20528;-48
2022/12/05 06:43:26;;;;;;;12.23;10.73;;;2.30;99.90;;;;;;5073398;28;20461;-49
2022/12/05 06:45:53;;;;;;;11.80;10.57;;;2.20;99.90;;;;;;5073248;28;20450;-49
2022/12/05 06:48:20;;;;;;;16.33;10.77;;;2.30;99.90;;;;;;5073210;28;20440;-49
2022/12/05 06:50:52;;;;;;;12.93;11.40;;;2.50;99.90;;;;;;5073420;28;21032;-51
2022/12/05 06:53:20;;;;;;;14.47;11.60;;;2.60;99.90;;;;;;5073157;28;20465;-49
2022/12/05 06:55:55;;;;;;;16.17;12.07;;;2.60;99.90;;;;;;5073385;28;20448;-46
2022/12/05 06:58:22;;;;;;;13.30;10.57;;;2.60;99.90;;;;;;5073250;28;20531;-47
2022/12/05 07:03:33;;;;;;;14.23;11.00;;;2.30;99.90;;;;;;5072178;28;20482;-46
2022/12/05 07:06:02;;;;;;;13.13;10.57;;;2.00;99.90;;;;;;5072821;28;20449;-49
2022/12/05 07:08:29;;;;;;;16.00;11.67;;;1.80;99.90;;;;;;5072795;28;21021;-46
2022/12/05 07:10:55;;;;;;;16.50;12.80;;;1.70;99.90;;;;;;5072970;28;20472;-46
2022/12/05 07:13:22;;;;;;;16.27;12.07;;;1.70;99.90;;;;;;5072520;28;20468;-48
2022/12/05 07:15:50;;;;;;;13.40;10.87;;;1.90;99.90;;;;;;5073073;28;20444;-47
2022/12/05 07:18:17;;;;;;;14.80;11.43;;;2.20;99.90;;;;;;5072858;28;20875;-48
2022/12/05 07:20:45;;;;;;;15.80;13.50;;;2.40;99.90;;;;;;5072643;28;20532;-46
2022/12/05 07:23:13;;;;;;;14.07;12.60;;;2.60;99.90;;;;;;5072330;28;20998;-46
2022/12/05 07:25:40;;;;;;;16.53;11.80;;;2.60;99.90;;;;;;5072763;28;20441;-47
2022/12/05 07:28:07;;;;;;;15.80;10.67;;;2.60;99.90;;;;;;5072813;28;20473;-47
2022/12/05 07:30:35;;;;;;;20.00;15.00;;;2.40;99.90;;;;;;5072342;28;20532;-46
2022/12/05 07:33:02;;;;;;;14.97;11.10;;;1.80;99.90;;;;;;5072337;28;20473;-47
2022/12/05 07:35:29;;;;;;;15.53;12.77;;;1.80;99.90;;;;;;5072454;28;20437;-46
2022/12/05 07:37:55;;;;;;;14.10;12.17;;;2.10;99.90;;;;;;5072122;28;20448;-46
2022/12/05 07:40:23;;;;;;;16.43;13.90;;;2.10;99.90;;;;;;5072203;28;20902;-47
2022/12/05 07:42:52;;;;;;;22.07;16.80;;;2.30;99.90;;;;;;5071840;28;20994;-47
2022/12/05 07:45:19;;;;;;;16.43;11.13;;;2.60;99.90;;;;;;5072067;28;20479;-46
2022/12/05 07:47:46;;;;;;;13.30;9.73;;;2.30;99.90;;;;;;5072324;28;20572;-46
2022/12/05 07:50:13;;;;;;;16.37;13.10;;;2.50;99.90;;;;;;5072376;28;20459;-46
2022/12/05 07:52:40;;;;;;;12.30;10.53;;;2.20;99.90;;;;;;5071994;28;20461;-46
2022/12/05 07:55:08;;;;;;;17.83;11.93;;;2.10;99.90;;;;;;5071557;28;20537;-47
2022/12/05 07:57:36;;;;;;;15.83;12.00;;;2.10;99.90;;;;;;5072285;28;20524;-46
2022/12/05 08:00:03;;;;;;;14.80;11.77;;;1.90;99.90;;;;;;5071930;28;20436;-47
2022/12/05 08:02:30;;;;;;;15.50;10.80;;;2.20;99.90;;;;;;5071871;28;20552;-46
2022/12/05 08:04:57;;;;;;;17.07;11.53;;;2.10;99.90;;;;;;5071570;28;20942;-47
2022/12/05 08:07:24;;;;;;;13.90;11.03;;;2.00;99.90;;;;;;5071897;28;20479;-47
2022/12/05 08:09:51;;;;;;;14.60;10.40;;;2.00;99.90;;;;;;5071719;28;20531;-46
2022/12/05 08:12:17;;;;;;;14.50;11.00;;;2.20;99.90;;;;;;5071775;28;20437;-47
2022/12/05 08:14:46;;;;;;;14.70;10.33;;;2.30;99.90;;;;;;5071281;28;20536;-47
2022/12/05 08:17:12;;;;;;;13.07;10.23;;;2.30;99.90;;;;;;5071559;28;20443;-48
2022/12/05 08:19:39;;;;;;;16.10;10.13;;;2.00;99.90;;;;;;5071635;28;20544;-47
2022/12/05 08:22:06;;;;;;;12.00;8.43;;;2.10;99.90;;;;;;5071567;28;20939;-46
2022/12/05 08:24:33;;;;;;;13.53;10.33;;;2.40;99.90;;;;;;5071180;28;20445;-46
2022/12/05 08:27:00;;;;;;;14.67;10.43;;;2.40;99.90;;;;;;5071387;28;20471;-46
2022/12/05 08:29:27;;;;;;;14.13;9.90;;;2.50;99.90;;;;;;5071369;28;20445;-45
2022/12/05 08:31:55;;;;;;;14.70;10.10;;;2.50;99.90;;;;;;5071380;28;20952;-47
2022/12/05 08:34:22;;;;;;;13.07;11.70;;;2.50;99.90;;;;;;5072657;28;20894;-47
2022/12/05 08:36:49;;;;;;;15.77;11.67;;;2.70;99.90;;;;;;5071277;28;20437;-46
2022/12/05 08:39:18;;;;;;;10.93;9.47;;;2.60;99.90;;;;;;5071464;28;20441;-49
2022/12/05 08:41:47;;;;;;;12.73;9.83;;;2.40;99.90;;;;;;5071498;28;20870;-46
2022/12/05 08:44:15;;;;;;;15.53;9.87;;;2.50;99.90;;;;;;5070827;28;20531;-46
2022/12/05 08:46:43;;;;;;;15.60;11.30;;;2.40;99.90;;;;;;5071587;28;20575;-46
2022/12/05 08:49:12;;;;;;;13.97;10.17;;;2.20;99.90;;;;;;5071295;28;20490;-47
2022/12/05 08:51:40;;;;;;;10.57;9.30;;;2.60;99.90;;;;;;5071403;28;20433;-47
2022/12/05 08:54:07;;;;;;;12.20;10.67;;;2.70;99.90;;;;;;5071084;28;20548;-46
2022/12/05 08:56:34;;;;;;;14.23;10.03;;;2.80;99.90;;;;;;5071684;28;20532;-47
2022/12/05 08:59:02;;;;;;;12.63;9.97;;;2.90;99.90;;;;;;5071285;28;20536;-48
2022/12/05 09:01:30;;;;;;;12.77;10.00;;;2.80;99.90;;;;;;5071158;28;20436;-47
2022/12/05 09:03:57;;;;;;;10.77;8.43;;;2.80;99.90;;;;;;5070915;28;20834;-47
2022/12/05 09:06:28;;;;;;;14.00;10.93;;;2.60;99.90;;;;;;5071167;28;20446;-46
2022/12/05 09:08:56;;;;;;;11.90;10.17;;;2.70;99.90;;;;;;5071108;28;20449;-46
2022/12/05 09:11:25;;;;;;;14.77;10.90;;;2.70;99.90;;;;;;5070852;28;20883;-46
2022/12/05 09:13:54;;;;;;;13.60;9.63;;;2.70;99.90;;;;;;5070791;28;20499;-47
2022/12/05 09:16:24;;;;;;;14.33;9.90;;;2.70;99.90;;;;;;5071230;28;20523;-46
2022/12/05 09:18:52;;;;;;;13.87;10.77;;;2.80;99.90;;;;;;5071126;28;20445;-47
2022/12/05 09:21:21;;;;;;;11.03;9.93;;;3.10;99.90;;;;;;5070994;28;20440;-45
2022/12/05 09:23:50;;;;;;;15.40;11.00;;;3.20;99.90;;;;;;5070046;28;20548;-46
2022/12/05 09:26:20;;;;;;;13.40;10.23;;;3.20;99.90;;;;;;5050888;28;20525;-47
2022/12/05 09:28:47;;;;;;;15.30;9.27;;;3.20;99.90;;;;;;5055060;28;20574;-47
2022/12/05 09:31:16;;;;;;;11.97;9.67;;;3.20;99.90;;;;;;5054401;28;20438;-47
2022/12/05 09:33:43;;;;;;;10.53;9.47;;;3.10;99.90;;;;;;5054424;28;20549;-48
2022/12/05 09:36:13;;;;;;;14.10;9.57;;;2.80;99.90;;;;;;5054245;28;20448;-47
2022/12/05 09:38:40;;;;;;;13.13;10.10;;;2.70;99.90;;;;;;5054874;28;20529;-47
2022/12/05 09:44:16;;;;;;;14.20;11.30;;;3.00;99.90;;;;;;5053861;28;20576;-46
2022/12/05 09:46:52;;;;;;;24.43;16.37;;;3.20;99.90;;;;;;5054819;28;20438;-46
2022/12/05 09:49:19;;;;;;;13.80;10.07;;;3.00;99.90;;;;;;5054355;28;20447;-46
2022/12/05 09:51:48;;;;;;;12.90;10.03;;;2.80;99.90;;;;;;5054534;28;20441;-46
2022/12/05 09:54:15;;;;;;;11.40;9.50;;;2.60;99.90;;;;;;5054509;28;20544;-47
2022/12/05 09:56:45;;;;;;;14.03;10.83;;;2.70;99.90;;;;;;5054306;28;20448;-46
2022/12/05 09:59:14;;;;;;;14.70;12.50;;;2.70;99.90;;;;;;5054446;28;20544;-46
2022/12/05 10:01:45;;;;;;;13.43;10.90;;;3.00;99.90;;;;;;5054664;28;20445;-47
2022/12/05 10:04:26;;;;;;;13.40;10.60;;;3.00;99.90;;;;;;5054012;28;20536;-47
2022/12/05 10:07:00;;;;;;;15.10;11.10;;;3.00;99.90;;;;;;5054180;28;20532;-47
2022/12/05 10:09:40;;;;;;;13.70;10.40;;;3.00;99.90;;;;;;5054022;28;20448;-46
2022/12/05 10:12:20;;;;;;;14.40;10.70;;;3.00;99.90;;;;;;5054185;28;20442;-46
2022/12/05 10:14:57;;;;;;;15.23;9.37;;;3.00;99.90;;;;;;5053782;28;21044;-46
2022/12/05 10:17:30;;;;;;;12.97;9.87;;;2.80;99.90;;;;;;5054022;28;21035;-47
2022/12/05 10:20:00;;;;;;;14.00;9.73;;;2.70;99.90;;;;;;5054346;28;20525;-46
2022/12/05 10:22:32;;;;;;;14.33;10.30;;;2.80;99.90;;;;;;5053991;28;20565;-46
2022/12/05 10:25:04;;;;;;;12.53;9.70;;;2.70;99.90;;;;;;5053707;28;20442;-47
2022/12/05 10:27:36;;;;;;;17.10;11.93;;;2.90;99.90;;;;;;5053758;28;20921;-48
2022/12/05 10:30:12;;;;;;;12.83;9.23;;;3.60;99.90;;;;;;5053514;28;20525;-47
2022/12/05 10:32:44;;;;;;;12.13;9.87;;;3.40;99.90;;;;;;5053594;28;20564;-47
2022/12/05 10:35:17;;;;;;;13.70;9.60;;;3.40;99.90;;;;;;5053485;28;20532;-47
2022/12/05 10:37:48;;;;;;;13.37;10.57;;;3.40;99.90;;;;;;5053210;28;20442;-47
2022/12/05 10:40:15;;;;;;;10.30;9.23;;;3.40;99.90;;;;;;5053779;28;20444;-46
2022/12/05 10:42:44;;;;;;;12.00;10.70;;;3.40;99.90;;;;;;5053587;28;20462;-47
2022/12/05 10:45:18;;;;;;;11.67;10.30;;;3.50;99.90;;;;;;5053503;28;20533;-44
2022/12/05 10:47:45;;;;;;;11.97;10.70;;;3.50;99.90;;;;;;5053649;28;20479;-47
2022/12/05 10:50:24;;;;;;;13.00;10.17;;;3.50;99.90;;;;;;5053604;28;20533;-49
2022/12/05 10:52:53;;;;;;;9.20;8.27;;;3.60;99.90;;;;;;5053407;28;20458;-45
2022/12/05 10:55:20;;;;;;;9.90;8.60;;;3.40;99.90;;;;;;5053368;28;20526;-46
2022/12/05 10:58:07;;;;;;;11.70;9.17;;;3.50;99.90;;;;;;5053099;28;20608;-47
2022/12/05 11:00:34;;;;;;;14.30;10.93;;;3.60;99.90;;;;;;5053289;28;20438;-48
2022/12/05 11:03:04;;;;;;;13.50;11.93;;;3.60;99.90;;;;;;5052723;28;20546;-47
2022/12/05 11:05:35;;;;;;;13.30;10.30;;;3.60;99.90;;;;;;5053098;28;20529;-47
2022/12/05 11:08:02;;;;;;;11.97;9.47;;;3.70;99.90;;;;;;5053052;28;20483;-46
2022/12/05 11:10:33;;;;;;;11.30;10.03;;;3.70;99.90;;;;;;5053248;28;20450;-46
2022/12/05 11:13:13;;;;;;;10.87;9.77;;;3.50;99.90;;;;;;5052855;28;20537;-47
2022/12/05 11:15:45;;;;;;;14.17;10.60;;;3.30;99.90;;;;;;5053504;28;20528;-46
2022/12/05 11:18:26;;;;;;;10.67;9.60;;;3.50;99.90;;;;;;5052936;28;20470;-46
2022/12/05 11:20:53;;;;;;;12.50;10.60;;;3.60;99.90;;;;;;5053059;28;20442;-46
2022/12/05 11:23:26;;;;;;;12.50;10.60;;;3.70;99.90;;;;;;5052607;28;20837;-49
2022/12/05 11:25:54;;;;;;;15.50;10.50;;;3.70;99.90;;;;;;5051039;28;20449;-48
2022/12/05 11:28:34;;;;;;;16.10;10.90;;;3.70;99.90;;;;;;5051202;28;20478;-48
2022/12/05 11:31:03;;;;;;;13.47;10.27;;;3.70;99.90;;;;;;5051034;28;20448;-47
2022/12/05 11:33:32;;;;;;;10.97;8.90;;;3.70;99.90;;;;;;5050427;28;20564;-46
2022/12/05 11:36:05;;;;;;;11.53;9.53;;;3.70;99.90;;;;;;5050432;28;20452;-48
2022/12/05 11:38:33;;;;;;;9.90;7.97;;;3.70;99.90;;;;;;5051003;28;20435;-43
2022/12/05 11:41:16;;;;;;;12.40;10.07;;;3.80;99.90;;;;;;5052761;28;20441;-47
2022/12/05 11:44:22;;;;;;;15.60;11.47;;;3.70;99.90;;;;;;5051897;28;20549;-46
2022/12/05 11:46:58;;;;;;;12.17;9.60;;;3.70;99.90;;;;;;5042604;28;20738;-47
2022/12/05 11:49:50;;;;;;;12.23;9.37;;;3.80;99.90;;;;;;5050177;28;20564;-49
2022/12/05 11:52:27;;;;;;;10.40;9.23;;;3.80;99.90;;;;;;5050802;28;20548;-48
2022/12/05 11:55:05;;;;;;;10.80;9.40;;;3.90;99.90;;;;;;5049935;28;20440;-49
2022/12/05 11:57:51;;;;;;;12.33;10.60;;;3.90;99.90;;;;;;5050646;28;20444;-48
2022/12/05 12:00:24;;;;;;;11.37;9.17;;;3.90;99.90;;;;;;5050492;28;20465;-48
2022/12/05 12:03:19;;;;;;;10.00;9.10;;;4.10;99.90;;;;;;5052088;28;20494;-44
2022/12/05 12:05:56;;;;;;;11.50;8.73;;;4.10;99.90;;;;;;5052287;28;20522;-46
2022/12/05 12:08:26;;;;;;;10.57;9.23;;;4.10;99.90;;;;;;5051575;28;20568;-47
2022/12/05 12:11:03;;;;;;;11.87;8.00;;;4.10;99.90;;;;;;5051321;28;20948;-48
2022/12/05 12:13:48;;;;;;;11.57;9.13;;;4.10;99.90;;;;;;5051201;28;20997;-47
2022/12/05 12:16:28;;;;;;;10.13;8.53;;;4.10;99.90;;;;;;5051609;28;20536;-47
2022/12/05 12:19:25;;;;;;;12.40;9.07;;;4.10;99.90;;;;;;5051713;28;20448;-49
2022/12/05 12:22:05;;;;;;;12.97;9.10;;;4.10;99.90;;;;;;5051554;28;20523;-46
2022/12/05 12:24:48;;;;;;;9.33;8.37;;;4.10;99.90;;;;;;5051381;28;20437;-47
2022/12/05 12:27:28;;;;;;;11.00;8.97;;;4.20;99.90;;;;;;5051485;28;20446;-47
2022/12/05 12:30:03;;;;;;;12.33;9.80;;;4.10;99.90;;;;;;5050152;28;20446;-47
2022/12/05 12:32:43;;;;;;;9.83;8.67;;;4.20;99.90;;;;;;5050258;28;20484;-47
2022/12/05 12:35:28;;;;;;;11.20;8.83;;;4.10;99.90;;;;;;5049844;28;20529;-47
2022/12/05 12:38:20;;;;;;;13.30;10.10;;;4.20;99.90;;;;;;5049483;28;20935;-46
2022/12/05 12:40:50;;;;;;;12.10;10.80;;;4.30;99.90;;;;;;5050163;28;20447;-47
2022/12/05 12:43:40;;;;;;;13.07;11.67;;;4.60;99.90;;;;;;5050194;28;20463;-47
2022/12/05 12:46:22;;;;;;;13.10;10.50;;;4.70;99.90;;;;;;5051201;28;20437;-46
2022/12/05 12:49:24;;;;;;;11.80;9.33;;;4.60;99.90;;;;;;5051485;28;20542;-47
2022/12/05 12:51:57;;;;;;;15.03;9.93;;;4.50;99.90;;;;;;5047696;28;20842;-46
2022/12/05 12:54:51;;;;;;;19.43;12.77;;;4.20;99.90;;;;;;5050910;28;20550;-46
2022/12/05 12:57:24;;;;;;;11.50;10.10;;;4.10;99.90;;;;;;5051252;28;21204;-47
2022/12/05 13:00:03;;;;;;;13.23;11.40;;;4.10;99.90;;;;;;5051471;28;20526;-46
2022/12/05 13:02:38;;;;;;;10.30;9.10;;;4.10;99.90;;;;;;5050281;28;20466;-48
2022/12/05 13:05:11;;;;;;;13.60;10.10;;;4.20;99.90;;;;;;5050921;28;20537;-47
2022/12/05 13:07:45;;;;;;;11.27;10.07;;;4.20;99.90;;;;;;5051260;28;20530;-47
2022/12/05 13:10:20;;;;;;;11.57;10.23;;;4.00;99.90;;;;;;5051380;28;20776;-47
2022/12/05 13:12:48;;;;;;;13.03;10.63;;;3.70;99.90;;;;;;5050785;28;20544;-47
2022/12/05 13:15:19;;;;;;;12.43;11.03;;;3.80;99.90;;;;;;5050901;28;20888;-47
2022/12/05 13:17:48;;;;;;;14.83;10.50;;;4.00;99.90;;;;;;5051406;28;20438;-46
2022/12/05 13:20:18;;;;;;;12.77;10.33;;;3.90;99.90;;;;;;5051328;28;20534;-47